Time;durP1;ratioP1;P1;durP2;ratioP2;P2;SDS_P1;SDS_P2;PMS_P1;PMS_P2;Temp;Humidity;BMP_temperature;BMP_pressure;BME280_temperature;BME280_humidity;BME280_pressure;Samples;Min_cycle;Max_cycle;Signal;HPM_P1;HPM_P2
2023/03/03 00:01:12;;;;;;;27.27;13.65;;;;;;;0.43;99.21;102333.66;5012136;28;20033;-84
2023/03/03 00:03:37;;;;;;;28.77;15.18;;;;;;;0.44;99.41;102340.50;5012958;28;20477;-84
2023/03/03 00:06:04;;;;;;;30.33;15.18;;;;;;;0.44;100.00;102335.41;5012969;28;20022;-84
2023/03/03 00:08:31;;;;;;;28.48;15.10;;;;;;;0.45;100.00;102332.91;5012305;28;20030;-84
2023/03/03 00:10:57;;;;;;;34.42;18.02;;;;;;;0.43;100.00;102339.66;5012710;28;20470;-84
2023/03/03 00:13:24;;;;;;;36.13;18.45;;;;;;;0.36;100.00;102334.16;5016232;28;20066;-85
2023/03/03 00:15:51;;;;;;;35.28;17.42;;;;;;;0.37;100.00;102339.31;5015939;28;20092;-84
2023/03/03 00:18:23;;;;;;;34.45;18.00;;;;;;;0.36;100.00;102340.13;5016628;28;20022;-84
2023/03/03 00:20:53;;;;;;;30.63;16.02;;;;;;;0.37;100.00;102344.44;5016714;28;20026;-84
2023/03/03 00:23:28;;;;;;;31.10;16.08;;;;;;;0.40;100.00;102349.72;5016086;28;20113;-84
2023/03/03 00:25:54;;;;;;;30.17;14.90;;;;;;;0.41;100.00;102343.81;5016439;28;20363;-84
2023/03/03 00:28:26;;;;;;;31.38;15.73;;;;;;;0.42;100.00;102345.56;5016507;28;20036;-84
2023/03/03 00:30:57;;;;;;;31.40;15.25;;;;;;;0.40;100.00;102344.59;5015428;28;20038;-84
2023/03/03 00:33:33;;;;;;;27.98;14.15;;;;;;;0.45;100.00;102350.81;5016612;28;20088;-84
2023/03/03 00:36:20;;;;;;;28.23;14.43;;;;;;;0.46;100.00;102334.69;5016283;28;20386;-84
2023/03/03 00:38:47;;;;;;;28.80;14.00;;;;;;;0.47;100.00;102343.25;4998639;28;20033;-83
2023/03/03 00:41:24;;;;;;;31.65;16.25;;;;;;;0.40;100.00;102338.59;5016235;28;20026;-85
2023/03/03 00:43:50;;;;;;;30.63;15.95;;;;;;;0.34;100.00;102338.28;5015345;28;20113;-84
2023/03/03 00:46:20;;;;;;;28.88;14.90;;;;;;;0.40;100.00;102352.25;5016398;28;20057;-84
2023/03/03 00:48:48;;;;;;;29.80;14.88;;;;;;;0.41;100.00;102348.00;5015834;28;20080;-84
2023/03/03 00:51:22;;;;;;;26.88;14.13;;;;;;;0.42;100.00;102345.56;5020040;28;20068;-84
2023/03/03 00:53:48;;;;;;;31.23;16.65;;;;;;;0.40;100.00;102346.25;5035453;28;20421;-84
2023/03/03 00:56:14;;;;;;;29.58;15.27;;;;;;;0.36;100.00;102347.78;5036086;28;20026;-84
2023/03/03 00:58:40;;;;;;;30.77;15.32;;;;;;;0.36;100.00;102345.22;5035163;28;20091;-84
2023/03/03 01:01:05;;;;;;;29.08;14.18;;;;;;;0.42;100.00;102350.66;5035659;28;20406;-85
2023/03/03 01:03:31;;;;;;;31.40;15.50;;;;;;;0.34;100.00;102344.28;5035447;28;20021;-85
2023/03/03 01:05:56;;;;;;;31.48;16.40;;;;;;;0.38;100.00;102348.75;5034456;28;20105;-84
2023/03/03 01:08:22;;;;;;;29.20;15.07;;;;;;;0.38;100.00;102358.09;5035500;28;20484;-84
2023/03/03 01:10:49;;;;;;;30.25;15.77;;;;;;;0.36;100.00;102363.09;5034010;28;20033;-84
2023/03/03 01:13:16;;;;;;;33.03;17.13;;;;;;;0.33;100.00;102355.31;5034813;28;20539;-84
2023/03/03 01:15:42;;;;;;;31.30;16.40;;;;;;;0.34;100.00;102363.84;5035299;28;20026;-84
2023/03/03 01:18:09;;;;;;;33.28;16.77;;;;;;;0.27;100.00;102354.97;5035083;28;20021;-84
2023/03/03 01:20:38;;;;;;;31.33;16.35;;;;;;;0.30;100.00;102361.13;5034795;28;20026;-85
2023/03/03 01:23:03;;;;;;;32.88;17.02;;;;;;;0.30;100.00;102370.47;5034314;28;20435;-84
2023/03/03 01:25:29;;;;;;;32.05;15.80;;;;;;;0.33;100.00;102369.75;5034122;28;20053;-84
2023/03/03 01:27:55;;;;;;;32.38;16.58;;;;;;;0.32;100.00;102368.88;5034943;28;20026;-84
2023/03/03 01:30:20;;;;;;;31.73;16.20;;;;;;;0.34;100.00;102357.03;5034880;28;20037;-85
2023/03/03 01:32:45;;;;;;;37.03;19.02;;;;;;;0.30;100.00;102367.91;5033768;28;20040;-84
2023/03/03 01:35:11;;;;;;;40.00;21.65;;;;;;;0.15;100.00;102358.66;5034901;28;20055;-84
2023/03/03 01:37:36;;;;;;;36.92;19.30;;;;;;;0.23;100.00;102369.28;5035264;28;20048;-84
2023/03/03 01:40:04;;;;;;;35.40;18.45;;;;;;;0.14;100.00;102379.88;5033785;28;20056;-84
2023/03/03 01:42:30;;;;;;;35.63;19.23;;;;;;;-0.04;100.00;102377.22;5015318;28;20018;-84
2023/03/03 01:45:13;;;;;;;38.00;20.70;;;;;;;-0.11;100.00;102381.97;5014761;28;20537;-83
2023/03/03 01:47:44;;;;;;;39.70;20.35;;;;;;;-0.18;100.00;102381.59;5014161;28;20044;-84
2023/03/03 01:50:13;;;;;;;37.10;19.85;;;;;;;-0.19;100.00;102371.31;5015280;28;20076;-84
2023/03/03 01:52:43;;;;;;;36.20;19.05;;;;;;;-0.13;100.00;102375.88;5014938;28;20086;-84
2023/03/03 01:55:17;;;;;;;34.78;17.75;;;;;;;-0.10;100.00;102374.38;5013957;28;20041;-84
2023/03/03 01:57:58;;;;;;;33.53;17.25;;;;;;;-0.05;100.00;102377.16;5018411;28;20032;-84
2023/03/03 02:00:25;;;;;;;36.13;19.35;;;;;;;-0.09;100.00;102372.69;5034733;28;20022;-84
2023/03/03 02:02:51;;;;;;;35.03;17.60;;;;;;;-0.05;100.00;102374.59;5033610;28;20438;-84
2023/03/03 02:05:17;;;;;;;34.90;18.40;;;;;;;-0.06;100.00;102373.75;5034465;28;20025;-84
2023/03/03 02:07:43;;;;;;;34.92;17.67;;;;;;;-0.10;100.00;102359.06;5033132;28;20394;-83
2023/03/03 02:10:14;;;;;;;31.67;15.95;;;;;;;-0.01;100.00;102379.97;5034175;28;20435;-84
2023/03/03 02:12:47;;;;;;;32.75;16.27;;;;;;;-0.02;100.00;102369.69;5034208;28;20462;-84
2023/03/03 02:15:20;;;;;;;32.63;17.38;;;;;;;-0.09;100.00;102376.13;5034109;28;20517;-84
2023/03/03 02:17:49;;;;;;;30.80;15.68;;;;;;;-0.09;100.00;102376.13;5033539;28;20018;-83
2023/03/03 02:20:29;;;;;;;31.02;15.90;;;;;;;-0.18;100.00;102375.63;5034377;28;20022;-84
2023/03/03 02:23:06;;;;;;;34.08;17.05;;;;;;;-0.20;100.00;102378.09;5033334;28;20025;-84
2023/03/03 02:26:16;;;;;;;32.53;16.02;;;;;;;-0.22;100.00;102377.13;5034409;28;20037;-84
2023/03/03 02:28:42;;;;;;;35.70;17.70;;;;;;;-0.41;100.00;102382.94;5016426;28;20042;-83
2023/03/03 02:31:12;;;;;;;35.30;18.30;;;;;;;-0.44;100.00;102384.41;5033905;28;20391;-84
2023/03/03 02:33:38;;;;;;;35.25;18.50;;;;;;;-0.48;100.00;102379.16;5033633;28;20024;-84
2023/03/03 02:36:04;;;;;;;34.75;17.42;;;;;;;-0.45;100.00;102386.09;5033149;28;20029;-83
2023/03/03 02:38:36;;;;;;;36.03;18.70;;;;;;;-0.45;100.00;102380.13;5034223;28;20025;-84
2023/03/03 02:41:29;;;;;;;34.00;17.75;;;;;;;-0.41;100.00;102374.38;5026494;28;20474;-84
2023/03/03 02:43:57;;;;;;;32.38;16.38;;;;;;;-0.39;100.00;102371.09;5013036;28;20030;-84
2023/03/03 02:46:23;;;;;;;33.13;16.90;;;;;;;-0.40;100.00;102376.13;5014027;28;20033;-84
2023/03/03 02:48:48;;;;;;;34.40;16.60;;;;;;;-0.36;100.00;102378.06;5013872;28;20038;-84
2023/03/03 02:51:13;;;;;;;33.35;16.90;;;;;;;-0.43;100.00;102376.84;5013133;28;20026;-84
2023/03/03 02:53:39;;;;;;;36.45;17.65;;;;;;;-0.49;100.00;102379.06;5014111;28;20033;-84
2023/03/03 02:56:06;;;;;;;36.00;18.38;;;;;;;-0.58;100.00;102379.44;5014486;28;20485;-83
2023/03/03 02:58:31;;;;;;;37.30;18.83;;;;;;;-0.64;100.00;102379.09;5012999;28;20037;-84
2023/03/03 03:00:56;;;;;;;34.30;16.92;;;;;;;-0.60;100.00;102380.13;5013704;28;20034;-83
2023/03/03 03:03:22;;;;;;;32.30;16.00;;;;;;;-0.52;100.00;102381.47;5013400;28;20033;-84
2023/03/03 03:05:47;;;;;;;34.58;17.08;;;;;;;-0.52;100.00;102378.91;5012926;28;20398;-83
2023/03/03 03:08:13;;;;;;;35.28;17.45;;;;;;;-0.56;100.00;102377.84;5032774;28;20093;-84
2023/03/03 03:10:38;;;;;;;36.17;17.80;;;;;;;-0.62;100.00;102380.94;5031579;28;20029;-83
2023/03/03 03:13:03;;;;;;;34.83;17.38;;;;;;;-0.57;100.00;102378.66;5032342;28;20087;-84
2023/03/03 03:15:28;;;;;;;36.50;17.80;;;;;;;-0.60;100.00;102381.03;5033162;28;20033;-83
2023/03/03 03:17:54;;;;;;;32.35;16.27;;;;;;;-0.57;100.00;102380.31;5032737;28;20021;-83
2023/03/03 03:20:19;;;;;;;37.50;18.02;;;;;;;-0.59;100.00;102387.00;5033030;28;20056;-84
2023/03/03 03:22:44;;;;;;;33.58;17.02;;;;;;;-0.56;100.00;102387.19;5032570;28;20025;-83
2023/03/03 03:25:10;;;;;;;35.08;16.63;;;;;;;-0.58;100.00;102389.66;5031731;28;20112;-83
2023/03/03 03:27:35;;;;;;;34.83;17.33;;;;;;;-0.57;100.00;102385.41;5032927;28;20377;-84
2023/03/03 03:30:00;;;;;;;33.47;16.23;;;;;;;-0.38;100.00;102397.50;5032721;28;20373;-84
2023/03/03 03:32:26;;;;;;;35.25;17.58;;;;;;;-0.44;100.00;102392.06;5031934;28;20101;-84
2023/03/03 03:34:51;;;;;;;34.22;16.63;;;;;;;-0.45;100.00;102385.22;5032444;28;20037;-84
2023/03/03 03:37:16;;;;;;;33.25;16.02;;;;;;;-0.45;100.00;102385.22;5032568;28;20171;-84
2023/03/03 03:39:42;;;;;;;32.90;15.85;;;;;;;-0.48;100.00;102388.47;5032182;28;20104;-84
2023/03/03 03:42:10;;;;;;;32.80;15.65;;;;;;;-0.53;100.00;102395.88;5032206;28;20435;-84
2023/03/03 03:44:35;;;;;;;33.05;16.25;;;;;;;-0.63;100.00;102389.41;5032546;28;20118;-84
2023/03/03 03:47:01;;;;;;;34.03;16.55;;;;;;;-0.71;100.00;102392.31;5031574;28;20060;-84
2023/03/03 03:49:26;;;;;;;34.50;16.10;;;;;;;-0.71;100.00;102398.25;5032991;28;20033;-84
2023/03/03 03:51:51;;;;;;;31.42;15.30;;;;;;;-0.66;100.00;102391.78;5032149;28;20041;-84
2023/03/03 03:54:17;;;;;;;31.05;14.73;;;;;;;-0.64;100.00;102391.84;5031966;28;20382;-83
2023/03/03 03:56:42;;;;;;;32.20;15.30;;;;;;;-0.77;100.00;102390.28;5032720;28;20052;-84
2023/03/03 03:59:07;;;;;;;30.25;14.77;;;;;;;-0.65;100.00;102413.94;5032245;28;20029;-84
2023/03/03 04:01:33;;;;;;;30.90;14.90;;;;;;;-0.72;100.00;102408.41;5032473;28;20026;-84
2023/03/03 04:03:58;;;;;;;30.92;15.27;;;;;;;-0.76;100.00;102409.00;5032118;28;20029;-83
2023/03/03 04:06:23;;;;;;;31.40;16.10;;;;;;;-0.81;100.00;102403.66;5032342;28;20079;-84
2023/03/03 04:08:49;;;;;;;33.20;15.63;;;;;;;-0.80;100.00;102406.31;5031410;28;20033;-83
2023/03/03 04:11:14;;;;;;;32.47;14.93;;;;;;;-0.82;100.00;102409.53;5032438;28;20033;-84
2023/03/03 04:13:40;;;;;;;33.20;15.82;;;;;;;-0.83;100.00;102413.78;5032476;28;20029;-83
2023/03/03 04:16:05;;;;;;;35.67;16.95;;;;;;;-0.91;100.00;102412.47;5030892;28;20042;-84
2023/03/03 04:18:31;;;;;;;34.03;16.58;;;;;;;-0.89;100.00;102415.94;5032183;28;20021;-83
2023/03/03 04:20:59;;;;;;;33.65;15.40;;;;;;;-0.90;100.00;102400.59;5032240;28;20026;-84
2023/03/03 04:23:24;;;;;;;34.08;16.13;;;;;;;-0.87;100.00;102411.81;5031657;28;20474;-83
2023/03/03 04:25:50;;;;;;;32.33;15.25;;;;;;;-0.82;100.00;102404.44;5032037;28;20047;-84
2023/03/03 04:28:18;;;;;;;31.38;15.30;;;;;;;-0.74;100.00;102413.41;5031471;28;20025;-83
2023/03/03 04:30:44;;;;;;;34.13;16.23;;;;;;;-0.76;100.00;102406.44;5032464;28;20024;-84
2023/03/03 04:33:09;;;;;;;33.95;15.80;;;;;;;-0.72;100.00;102413.50;5031247;28;20389;-85
2023/03/03 04:35:44;;;;;;;30.23;14.25;;;;;;;-0.67;100.00;102409.50;5031699;28;20088;-83
2023/03/03 04:38:09;;;;;;;33.53;15.77;;;;;;;-0.68;100.00;102405.25;5032327;28;20041;-83
2023/03/03 04:40:34;;;;;;;33.97;16.17;;;;;;;-0.69;100.00;102421.31;5032083;28;20101;-84
2023/03/03 04:43:00;;;;;;;34.78;16.58;;;;;;;-0.69;100.00;102421.31;5031463;28;20022;-83
2023/03/03 04:45:25;;;;;;;32.95;15.88;;;;;;;-0.72;100.00;102414.34;5032197;28;20053;-84
2023/03/03 04:47:50;;;;;;;34.45;15.70;;;;;;;-0.71;100.00;102417.81;5031726;28;20034;-83
2023/03/03 04:50:16;;;;;;;33.30;15.38;;;;;;;-0.65;100.00;102419.03;5017419;28;20034;-84
2023/03/03 04:52:41;;;;;;;33.88;15.73;;;;;;;-0.65;100.00;102413.94;5012098;28;20046;-84
2023/03/03 04:55:07;;;;;;;35.45;15.75;;;;;;;-0.65;100.00;102401.19;5011996;28;20022;-83
2023/03/03 04:57:36;;;;;;;34.13;15.82;;;;;;;-0.65;100.00;102408.81;5010978;28;20029;-83
2023/03/03 05:00:01;;;;;;;34.05;15.52;;;;;;;-0.63;100.00;102414.00;5014369;28;20080;-83
2023/03/03 05:02:27;;;;;;;33.17;15.20;;;;;;;-0.63;100.00;102414.00;5016169;28;20045;-84
2023/03/03 05:04:52;;;;;;;34.63;15.27;;;;;;;-0.64;100.00;102412.25;5014692;28;20490;-84
2023/03/03 05:07:18;;;;;;;37.03;16.25;;;;;;;-0.64;100.00;102417.34;5015714;28;20034;-84
2023/03/03 05:09:44;;;;;;;33.88;15.57;;;;;;;-0.60;100.00;102424.38;5015687;28;20101;-83
2023/03/03 05:12:09;;;;;;;32.95;15.23;;;;;;;-0.55;100.00;102422.09;5015024;28;20113;-84
2023/03/03 05:14:34;;;;;;;34.38;15.20;;;;;;;-0.56;100.00;102412.69;5015847;28;20029;-83
2023/03/03 05:17:00;;;;;;;35.03;15.13;;;;;;;-0.55;100.00;102422.09;5015107;28;20529;-84
2023/03/03 05:19:25;;;;;;;35.20;16.17;;;;;;;-0.49;100.00;102419.88;5015080;28;20367;-83
2023/03/03 05:21:51;;;;;;;33.92;15.07;;;;;;;-0.49;100.00;102419.88;5015329;28;20406;-83
2023/03/03 05:24:16;;;;;;;36.92;15.43;;;;;;;-0.47;100.00;102421.72;5015389;28;20037;-84
2023/03/03 05:26:41;;;;;;;33.55;14.98;;;;;;;-0.43;100.00;102424.44;5014762;28;20058;-84
2023/03/03 05:29:07;;;;;;;34.35;15.10;;;;;;;-0.43;100.00;102417.69;5015018;28;20474;-83
2023/03/03 05:31:33;;;;;;;31.65;14.48;;;;;;;-0.36;100.00;102424.00;5015185;28;20073;-84
2023/03/03 05:33:58;;;;;;;31.63;14.55;;;;;;;-0.34;100.00;102427.50;5019986;28;20492;-83
2023/03/03 05:36:24;;;;;;;32.65;14.63;;;;;;;-0.36;100.00;102424.00;5034956;28;20116;-84
2023/03/03 05:38:49;;;;;;;32.88;14.30;;;;;;;-0.32;100.00;102436.09;5033234;28;20021;-84
2023/03/03 05:41:15;;;;;;;32.58;14.27;;;;;;;-0.28;100.00;102435.50;5035003;28;20040;-84
2023/03/03 05:43:40;;;;;;;33.38;14.18;;;;;;;-0.27;100.00;102424.50;5034774;28;20025;-83
2023/03/03 05:46:05;;;;;;;31.48;13.57;;;;;;;-0.31;100.00;102412.34;5035760;28;20030;-83
2023/03/03 05:48:31;;;;;;;31.13;13.65;;;;;;;-0.20;100.00;102431.69;5034935;28;20116;-83
2023/03/03 05:50:59;;;;;;;31.40;14.75;;;;;;;-0.16;100.00;102428.50;5034590;28;20032;-83
2023/03/03 05:53:28;;;;;;;34.60;14.68;;;;;;;-0.21;100.00;102419.72;5033705;28;20033;-84
2023/03/03 05:55:53;;;;;;;33.78;14.90;;;;;;;-0.15;100.00;102429.38;5034409;28;20476;-83
2023/03/03 05:58:20;;;;;;;32.15;14.70;;;;;;;-0.12;100.00;102428.69;5029789;28;20116;-83
2023/03/03 06:00:45;;;;;;;32.72;14.43;;;;;;;-0.12;100.00;102419.34;5033801;28;20026;-83
2023/03/03 06:03:11;;;;;;;32.65;14.60;;;;;;;-0.10;100.00;102427.97;5034735;28;20105;-83
2023/03/03 06:05:36;;;;;;;32.65;14.23;;;;;;;-0.08;100.00;102431.47;5014895;28;20057;-83
2023/03/03 06:08:01;;;;;;;35.10;14.55;;;;;;;-0.07;100.00;102430.69;5013860;28;20592;-83
2023/03/03 06:10:27;;;;;;;30.92;13.27;;;;;;;-0.01;100.00;102435.25;5014339;28;20096;-83
2023/03/03 06:12:53;;;;;;;31.17;13.85;;;;;;;0.02;100.00;102444.75;5014585;28;20029;-83
2023/03/03 06:15:19;;;;;;;33.25;14.15;;;;;;;0.00;100.00;102431.91;5014145;28;20029;-83
2023/03/03 06:17:44;;;;;;;32.53;15.15;;;;;;;-0.03;100.00;102434.28;5014530;28;20092;-83
2023/03/03 06:20:10;;;;;;;32.17;14.32;;;;;;;0.03;100.00;102434.59;5014589;28;20060;-83
2023/03/03 06:22:35;;;;;;;33.45;15.63;;;;;;;0.06;100.00;102444.09;5013762;28;20030;-83
2023/03/03 06:25:01;;;;;;;34.90;15.25;;;;;;;0.07;100.00;102450.94;5013910;28;20030;-83
2023/03/03 06:27:26;;;;;;;35.03;14.93;;;;;;;0.08;100.00;102458.72;5013474;28;20073;-83
2023/03/03 06:29:52;;;;;;;32.15;13.65;;;;;;;0.10;100.00;102451.13;5018193;28;20056;-83
2023/03/03 06:32:17;;;;;;;32.70;14.65;;;;;;;0.17;100.00;102453.19;5033756;28;20474;-84
2023/03/03 06:34:42;;;;;;;29.80;12.45;;;;;;;0.18;100.00;102452.41;5034050;28;20021;-83
2023/03/03 06:37:07;;;;;;;30.98;14.27;;;;;;;0.24;100.00;102470.63;5032914;28;20026;-83
2023/03/03 06:39:44;;;;;;;32.50;14.40;;;;;;;0.22;100.00;102459.44;5033714;28;20082;-83
2023/03/03 06:42:25;;;;;;;32.38;15.38;;;;;;;0.27;100.00;102465.69;5033426;28;20029;-83
2023/03/03 06:45:03;;;;;;;33.40;14.60;;;;;;;0.19;100.00;102463.50;5033716;28;20033;-82
2023/03/03 06:47:28;;;;;;;34.67;15.13;;;;;;;0.19;100.00;102478.84;5033127;28;20057;-83
2023/03/03 06:49:54;;;;;;;37.28;15.30;;;;;;;0.22;100.00;102484.97;5032636;28;20056;-83
2023/03/03 06:52:22;;;;;;;34.80;15.65;;;;;;;0.20;100.00;102481.47;5033403;28;20401;-83
2023/03/03 06:54:49;;;;;;;34.20;16.63;;;;;;;0.24;100.00;102491.06;5043992;28;20005;-83
2023/03/03 06:57:30;;;;;;;33.53;14.75;;;;;;;0.28;100.00;102486.97;5038962;28;20049;-83
2023/03/03 07:00:14;;;;;;;29.90;13.05;;;;;;;0.35;100.00;102498.41;5033582;28;20025;-83
2023/03/03 07:02:40;;;;;;;27.15;11.88;;;;;;;0.39;100.00;102496.09;5033295;28;20025;-83
2023/03/03 07:05:11;;;;;;;33.30;14.90;;;;;;;0.42;100.00;102493.72;5032375;28;20112;-83
2023/03/03 07:07:37;;;;;;;35.15;14.77;;;;;;;0.41;100.00;102481.75;5033160;28;20036;-83
2023/03/03 07:10:15;;;;;;;34.17;14.93;;;;;;;0.43;100.00;102485.25;5030655;28;20029;-83
2023/03/03 07:12:40;;;;;;;33.63;15.38;;;;;;;0.45;100.00;102488.75;5032319;28;20057;-83
2023/03/03 07:15:22;;;;;;;37.38;16.67;;;;;;;0.41;100.00;102491.97;5033182;28;20056;-85
2023/03/03 07:17:51;;;;;;;34.45;15.38;;;;;;;0.44;100.00;102493.78;5032582;28;20029;-85
2023/03/03 07:20:21;;;;;;;34.55;15.18;;;;;;;0.48;100.00;102494.81;5033523;28;20041;-86
2023/03/03 07:22:47;;;;;;;30.63;14.02;;;;;;;0.50;100.00;102495.78;5032226;28;20449;-87
2023/03/03 07:25:32;;;;;;;30.77;14.35;;;;;;;0.52;100.00;102500.16;5016240;28;20061;-84
2023/03/03 07:28:07;;;;;;;29.85;14.48;;;;;;;0.57;100.00;102508.97;5012838;28;20037;-84
2023/03/03 07:30:32;;;;;;;31.75;14.15;;;;;;;0.59;100.00;102501.38;5013173;28;20044;-84
2023/03/03 07:32:58;;;;;;;32.22;14.85;;;;;;;0.59;100.00;102494.59;5012026;28;20030;-83
2023/03/03 07:35:43;;;;;;;30.25;13.07;;;;;;;0.61;100.00;102512.56;5013212;28;20022;-84
2023/03/03 07:38:33;;;;;;;28.00;12.50;;;;;;;0.66;100.00;102517.91;5013764;28;20033;-84
2023/03/03 07:41:01;;;;;;;28.60;12.30;;;;;;;0.70;100.00;102517.28;5012496;28;20462;-83
2023/03/03 07:43:49;;;;;;;30.73;13.43;;;;;;;0.70;100.00;102525.81;5013207;28;20097;-84
2023/03/03 07:46:47;;;;;;;29.20;12.38;;;;;;;0.73;100.00;102523.44;5012451;28;20054;-83
2023/03/03 07:49:34;;;;;;;27.13;11.75;;;;;;;0.74;100.00;102521.75;5013068;28;20041;-84
2023/03/03 07:52:00;;;;;;;32.13;13.82;;;;;;;0.79;100.00;102522.88;5008301;28;20433;-83
2023/03/03 07:54:31;;;;;;;29.58;13.32;;;;;;;0.83;99.96;102531.56;5012029;28;20026;-84
2023/03/03 07:57:10;;;;;;;32.53;13.88;;;;;;;0.78;99.73;102531.34;5013586;28;20592;-84
2023/03/03 07:59:37;;;;;;;31.58;13.82;;;;;;;0.79;99.47;102532.22;5012630;28;20037;-84
2023/03/03 08:02:24;;;;;;;29.75;13.05;;;;;;;0.79;99.57;102527.13;5012423;28;20030;-84
2023/03/03 08:04:51;;;;;;;30.83;13.70;;;;;;;0.83;99.09;102541.78;5012534;28;20034;-83
2023/03/03 08:07:18;;;;;;;30.65;13.05;;;;;;;0.86;98.53;102547.06;5012438;28;20032;-83
2023/03/03 08:09:57;;;;;;;30.15;12.80;;;;;;;0.84;97.59;102548.66;5013043;28;20034;-83
2023/03/03 08:12:41;;;;;;;32.28;13.82;;;;;;;0.76;96.94;102543.16;5024566;28;20025;-83
2023/03/03 08:15:18;;;;;;;29.98;13.30;;;;;;;0.74;96.55;102542.19;5031378;28;20110;-83
2023/03/03 08:17:44;;;;;;;30.83;13.48;;;;;;;0.77;97.40;102553.47;5032083;28;20056;-82
2023/03/03 08:20:28;;;;;;;33.38;13.85;;;;;;;0.74;97.27;102553.31;5032088;28;20071;-83
2023/03/03 08:22:54;;;;;;;31.67;14.05;;;;;;;0.78;97.55;102559.44;5032383;28;20099;-83
2023/03/03 08:25:19;;;;;;;28.73;12.75;;;;;;;0.84;97.41;102552.13;5032479;28;20021;-83
2023/03/03 08:27:45;;;;;;;29.52;12.55;;;;;;;0.90;97.72;102551.56;5030416;28;20034;-83
2023/03/03 08:30:11;;;;;;;28.92;12.02;;;;;;;0.97;97.66;102555.28;5032398;28;20025;-83
2023/03/03 08:32:39;;;;;;;29.73;12.90;;;;;;;1.00;98.87;102553.78;5032653;28;20496;-84
2023/03/03 08:35:05;;;;;;;34.28;14.82;;;;;;;0.95;99.15;102550.09;5034909;28;20094;-82
2023/03/03 08:37:31;;;;;;;29.73;12.95;;;;;;;1.06;98.80;102561.75;5036336;28;20053;-82
2023/03/03 08:39:56;;;;;;;32.38;14.98;;;;;;;1.04;99.37;102563.34;5035826;28;20026;-82
2023/03/03 08:42:22;;;;;;;29.70;12.98;;;;;;;1.11;99.11;102562.00;5035386;28;20478;-83
2023/03/03 08:44:47;;;;;;;29.13;12.80;;;;;;;1.17;98.81;102566.56;5036011;28;20104;-83
2023/03/03 08:47:12;;;;;;;26.55;11.00;;;;;;;1.24;98.59;102573.72;5035640;28;20120;-83
2023/03/03 08:49:38;;;;;;;27.08;11.90;;;;;;;1.28;99.23;102573.09;5034930;28;20033;-83
2023/03/03 08:52:04;;;;;;;32.23;13.80;;;;;;;1.23;98.14;102577.97;5035397;28;20373;-83
2023/03/03 08:54:29;;;;;;;32.90;14.63;;;;;;;1.24;97.57;102581.41;5035730;28;20489;-83
2023/03/03 08:56:54;;;;;;;30.48;13.52;;;;;;;1.18;96.86;102586.22;5034853;28;20022;-83
2023/03/03 08:59:21;;;;;;;32.85;14.63;;;;;;;1.05;96.81;102587.28;5036128;28;20033;-83
2023/03/03 09:01:46;;;;;;;30.40;14.77;;;;;;;0.93;96.91;102584.94;5035843;28;20028;-84
2023/03/03 09:04:11;;;;;;;31.33;13.98;;;;;;;0.96;97.32;102581.69;5034987;28;20376;-83
2023/03/03 09:06:37;;;;;;;29.00;12.70;;;;;;;1.04;96.50;102585.50;5035670;28;20022;-83
2023/03/03 09:09:03;;;;;;;31.52;13.13;;;;;;;1.05;96.22;102584.72;5035205;28;20481;-82
2023/03/03 09:11:29;;;;;;;27.75;12.75;;;;;;;1.07;95.61;102585.66;5034871;28;20018;-83
2023/03/03 09:14:16;;;;;;;31.70;12.85;;;;;;;1.13;95.27;102588.53;5035094;28;20129;-81
2023/03/03 09:16:50;;;;;;;29.17;13.45;;;;;;;1.11;95.60;102589.28;5036543;28;20064;-81
2023/03/03 09:19:31;;;;;;;28.40;12.75;;;;;;;1.16;95.79;102592.94;5028977;28;20030;-82
2023/03/03 09:22:20;;;;;;;26.00;10.95;;;;;;;1.25;96.00;102590.84;5033222;28;20462;-82
2023/03/03 09:24:48;;;;;;;28.00;12.13;;;;;;;1.20;94.64;102587.19;5033675;28;20116;-81
2023/03/03 09:27:29;;;;;;;26.85;11.90;;;;;;;1.20;94.67;102600.84;5035276;28;20068;-81
2023/03/03 09:29:56;;;;;;;28.05;12.18;;;;;;;1.22;94.62;102601.78;5034917;28;20017;-81
2023/03/03 09:32:41;;;;;;;27.92;11.68;;;;;;;1.31;95.10;102598.84;5034380;28;20381;-82
2023/03/03 09:35:41;;;;;;;23.92;10.60;;;;;;;1.41;93.62;102594.19;5035081;28;20021;-81
2023/03/03 09:38:25;;;;;;;23.08;9.82;;;;;;;1.53;94.50;102598.22;5001160;28;20037;-81
2023/03/03 09:41:22;;;;;;;22.83;8.93;;;;;;;1.66;93.32;102601.41;5016928;28;20021;-81
2023/03/03 09:44:12;;;;;;;20.02;7.90;;;;;;;1.75;93.47;102598.44;5020510;28;20057;-81
2023/03/03 09:46:38;;;;;;;23.15;9.65;;;;;;;1.81;92.79;102604.75;5014097;28;20034;-81
2023/03/03 09:49:33;;;;;;;21.35;9.27;;;;;;;1.95;92.93;102610.53;5014530;28;20382;-81
2023/03/03 09:52:25;;;;;;;22.23;9.63;;;;;;;1.92;91.01;102614.63;5013732;28;20045;-81
2023/03/03 09:55:09;;;;;;;24.67;10.73;;;;;;;1.87;91.93;102609.28;5014590;28;20029;-81
2023/03/03 09:58:00;;;;;;;23.42;10.20;;;;;;;1.77;91.16;102614.75;5015002;28;20072;-82
2023/03/03 10:00:46;;;;;;;25.33;10.82;;;;;;;1.79;91.39;102608.91;5014176;28;20022;-81
2023/03/03 10:03:36;;;;;;;22.88;10.10;;;;;;;1.80;91.67;102612.34;5015049;28;20088;-82
2023/03/03 10:06:40;;;;;;;22.92;9.32;;;;;;;1.91;91.63;102607.75;5013962;28;20422;-81
2023/03/03 10:09:22;;;;;;;23.85;10.13;;;;;;;1.89;91.28;102611.91;5012297;28;20219;-82
2023/03/03 10:12:06;;;;;;;23.58;10.07;;;;;;;1.92;90.78;102615.50;5014387;28;20425;-83
2023/03/03 10:14:40;;;;;;;24.20;9.82;;;;;;;1.97;91.57;102615.75;5014052;28;20072;-83
2023/03/03 10:17:34;;;;;;;23.35;9.90;;;;;;;2.09;91.77;102620.56;5014465;28;20037;-82
2023/03/03 10:20:18;;;;;;;23.10;9.85;;;;;;;2.21;91.26;102617.69;4960240;28;20083;-82
2023/03/03 10:23:19;;;;;;;21.52;9.07;;;;;;;2.36;91.04;102620.16;5021369;28;20421;-82
2023/03/03 10:26:13;;;;;;;20.05;8.32;;;;;;;2.52;91.02;102617.47;5011757;28;20560;-81
2023/03/03 10:29:03;;;;;;;22.08;9.32;;;;;;;2.60;90.50;102618.69;5033213;28;20030;-81
2023/03/03 10:31:57;;;;;;;22.25;9.52;;;;;;;2.55;89.32;102619.28;5033888;28;20040;-81
2023/03/03 10:34:52;;;;;;;22.58;9.77;;;;;;;2.62;90.37;102614.53;5032890;28;20044;-83
2023/03/03 10:37:48;;;;;;;21.60;9.27;;;;;;;2.66;90.11;102614.69;5034129;28;20032;-81
2023/03/03 10:40:46;;;;;;;21.73;9.32;;;;;;;2.71;89.32;102616.66;5034085;28;20036;-81
2023/03/03 10:43:19;;;;;;;21.88;9.13;;;;;;;2.81;89.62;102617.94;5032978;28;20037;-81
2023/03/03 10:46:01;;;;;;;21.45;8.88;;;;;;;2.91;88.88;102608.97;5033742;28;20076;-81
2023/03/03 10:48:34;;;;;;;24.65;10.15;;;;;;;2.90;87.37;102609.78;5033020;28;20029;-83
2023/03/03 10:51:37;;;;;;;24.05;9.70;;;;;;;2.89;87.17;102614.03;5033138;28;20029;-86
2023/03/03 10:54:13;;;;;;;21.60;9.73;;;;;;;2.95;86.82;102610.88;5033304;28;20031;-82
2023/03/03 10:56:49;;;;;;;23.23;9.70;;;;;;;3.01;87.38;102612.84;5031923;28;20026;-82
2023/03/03 10:59:44;;;;;;;20.63;8.60;;;;;;;3.09;87.14;102614.94;5033511;28;20032;-82
2023/03/03 11:02:21;;;;;;;21.48;9.45;;;;;;;3.20;87.57;102610.25;4995983;28;20044;-84
2023/03/03 11:05:17;;;;;;;21.10;9.05;;;;;;;3.28;86.62;102620.88;5027609;28;20033;-87
2023/03/03 11:07:48;;;;;;;22.67;9.52;;;;;;;3.38;85.46;102619.56;5013860;28;20462;-81
2023/03/03 11:10:36;;;;;;;24.13;10.63;;;;;;;3.22;84.92;102613.78;5012710;28;20030;-82
2023/03/03 11:13:28;;;;;;;23.73;10.73;;;;;;;3.14;86.01;102606.53;5013237;28;20459;-82
2023/03/03 11:16:13;;;;;;;22.25;9.48;;;;;;;3.33;86.84;102608.22;5013174;28;20056;-83
2023/03/03 11:19:04;;;;;;;21.50;10.03;;;;;;;3.50;86.00;102611.50;5013406;28;20426;-82
2023/03/03 11:22:06;;;;;;;20.27;8.68;;;;;;;3.69;86.39;102610.59;5013479;28;20520;-82
2023/03/03 11:24:46;;;;;;;21.58;9.38;;;;;;;3.75;83.81;102615.13;5012814;28;20030;-82
2023/03/03 11:27:11;;;;;;;22.65;10.40;;;;;;;3.67;83.49;102614.78;5013751;28;20377;-82
2023/03/03 11:29:55;;;;;;;22.98;10.68;;;;;;;3.65;83.53;102595.88;5013792;28;20026;-82